sensor_id;sensor_type;location;lat;lon;timestamp;P1;durP1;ratioP1;P2;durP2;ratioP2
51566;SDS011;37657;53.182;5.638;2023-04-03T00:01:08;2.63;;;2.30;;
51566;SDS011;37657;53.182;5.638;2023-04-03T00:03:34;4.05;;;3.03;;
51566;SDS011;37657;53.182;5.638;2023-04-03T00:06:00;3.25;;;2.45;;
51566;SDS011;37657;53.182;5.638;2023-04-03T00:08:26;4.65;;;3.20;;
51566;SDS011;37657;53.182;5.638;2023-04-03T00:10:51;6.28;;;3.88;;
51566;SDS011;37657;53.182;5.638;2023-04-03T00:13:17;2.65;;;2.45;;
51566;SDS011;37657;53.182;5.638;2023-04-03T00:15:43;4.72;;;2.60;;
51566;SDS011;37657;53.182;5.638;2023-04-03T00:18:09;3.65;;;2.78;;
51566;SDS011;37657;53.182;5.638;2023-04-03T00:20:34;4.85;;;2.92;;
51566;SDS011;37657;53.182;5.638;2023-04-03T00:23:01;4.05;;;3.00;;
51566;SDS011;37657;53.182;5.638;2023-04-03T00:25:27;5.07;;;2.97;;
51566;SDS011;37657;53.182;5.638;2023-04-03T00:27:52;6.10;;;4.40;;
51566;SDS011;37657;53.182;5.638;2023-04-03T00:30:19;2.63;;;2.33;;
51566;SDS011;37657;53.182;5.638;2023-04-03T00:32:50;5.65;;;3.25;;
51566;SDS011;37657;53.182;5.638;2023-04-03T00:35:16;6.05;;;3.42;;
51566;SDS011;37657;53.182;5.638;2023-04-03T00:37:43;6.10;;;3.22;;
51566;SDS011;37657;53.182;5.638;2023-04-03T00:40:10;4.97;;;3.45;;
51566;SDS011;37657;53.182;5.638;2023-04-03T00:42:37;5.82;;;3.40;;
51566;SDS011;37657;53.182;5.638;2023-04-03T00:47:29;4.72;;;3.22;;
51566;SDS011;37657;53.182;5.638;2023-04-03T00:49:55;5.72;;;2.78;;
51566;SDS011;37657;53.182;5.638;2023-04-03T00:52:23;3.25;;;2.95;;
51566;SDS011;37657;53.182;5.638;2023-04-03T00:54:53;7.30;;;3.35;;
51566;SDS011;37657;53.182;5.638;2023-04-03T00:57:22;3.60;;;2.88;;
51566;SDS011;37657;53.182;5.638;2023-04-03T00:59:49;4.70;;;3.08;;
51566;SDS011;37657;53.182;5.638;2023-04-03T01:02:20;4.85;;;3.00;;
51566;SDS011;37657;53.182;5.638;2023-04-03T01:04:45;4.85;;;3.25;;
51566;SDS011;37657;53.182;5.638;2023-04-03T01:07:13;4.53;;;3.05;;
51566;SDS011;37657;53.182;5.638;2023-04-03T01:09:47;5.47;;;3.45;;
51566;SDS011;37657;53.182;5.638;2023-04-03T01:12:28;5.20;;;4.05;;
51566;SDS011;37657;53.182;5.638;2023-04-03T01:15:02;5.78;;;3.20;;
51566;SDS011;37657;53.182;5.638;2023-04-03T01:17:32;3.30;;;2.65;;
51566;SDS011;37657;53.182;5.638;2023-04-03T01:20:23;4.55;;;2.80;;
51566;SDS011;37657;53.182;5.638;2023-04-03T01:25:50;5.55;;;3.03;;
51566;SDS011;37657;53.182;5.638;2023-04-03T01:28:21;3.97;;;2.85;;
51566;SDS011;37657;53.182;5.638;2023-04-03T01:33:45;4.05;;;3.35;;
51566;SDS011;37657;53.182;5.638;2023-04-03T01:36:17;7.05;;;3.45;;
51566;SDS011;37657;53.182;5.638;2023-04-03T01:38:47;2.63;;;2.27;;
51566;SDS011;37657;53.182;5.638;2023-04-03T01:41:13;3.75;;;2.80;;
51566;SDS011;37657;53.182;5.638;2023-04-03T01:43:39;4.32;;;3.08;;
51566;SDS011;37657;53.182;5.638;2023-04-03T01:46:05;4.95;;;3.05;;
51566;SDS011;37657;53.182;5.638;2023-04-03T01:48:30;5.20;;;2.70;;
51566;SDS011;37657;53.182;5.638;2023-04-03T01:50:56;4.18;;;2.13;;
51566;SDS011;37657;53.182;5.638;2023-04-03T01:53:21;3.40;;;2.92;;
51566;SDS011;37657;53.182;5.638;2023-04-03T01:55:47;3.20;;;2.33;;
51566;SDS011;37657;53.182;5.638;2023-04-03T01:58:13;5.10;;;2.92;;
51566;SDS011;37657;53.182;5.638;2023-04-03T02:00:39;7.43;;;3.63;;
51566;SDS011;37657;53.182;5.638;2023-04-03T02:03:04;5.35;;;3.92;;
51566;SDS011;37657;53.182;5.638;2023-04-03T02:05:30;2.80;;;2.15;;
51566;SDS011;37657;53.182;5.638;2023-04-03T02:07:57;5.38;;;3.17;;
51566;SDS011;37657;53.182;5.638;2023-04-03T02:10:22;5.72;;;2.70;;
51566;SDS011;37657;53.182;5.638;2023-04-03T02:12:48;6.57;;;2.72;;
51566;SDS011;37657;53.182;5.638;2023-04-03T02:15:13;4.65;;;3.83;;
51566;SDS011;37657;53.182;5.638;2023-04-03T02:17:39;3.55;;;2.10;;
51566;SDS011;37657;53.182;5.638;2023-04-03T02:20:04;4.10;;;3.03;;
51566;SDS011;37657;53.182;5.638;2023-04-03T02:22:31;2.83;;;2.40;;
51566;SDS011;37657;53.182;5.638;2023-04-03T02:24:56;4.72;;;2.15;;
51566;SDS011;37657;53.182;5.638;2023-04-03T02:27:22;3.60;;;2.45;;
51566;SDS011;37657;53.182;5.638;2023-04-03T02:29:47;5.03;;;2.33;;
51566;SDS011;37657;53.182;5.638;2023-04-03T02:32:13;3.30;;;2.00;;
51566;SDS011;37657;53.182;5.638;2023-04-03T02:34:38;6.43;;;2.85;;
51566;SDS011;37657;53.182;5.638;2023-04-03T02:37:04;3.75;;;3.15;;
51566;SDS011;37657;53.182;5.638;2023-04-03T02:39:30;3.67;;;2.75;;
51566;SDS011;37657;53.182;5.638;2023-04-03T02:41:55;4.30;;;2.92;;
51566;SDS011;37657;53.182;5.638;2023-04-03T02:44:21;4.30;;;2.30;;
51566;SDS011;37657;53.182;5.638;2023-04-03T02:46:48;3.45;;;2.40;;
51566;SDS011;37657;53.182;5.638;2023-04-03T02:49:14;4.05;;;2.47;;
51566;SDS011;37657;53.182;5.638;2023-04-03T02:51:40;2.33;;;1.92;;
51566;SDS011;37657;53.182;5.638;2023-04-03T02:54:06;5.15;;;3.42;;
51566;SDS011;37657;53.182;5.638;2023-04-03T02:56:32;3.60;;;2.90;;
51566;SDS011;37657;53.182;5.638;2023-04-03T02:58:58;3.42;;;2.53;;
51566;SDS011;37657;53.182;5.638;2023-04-03T03:01:23;5.05;;;3.15;;
51566;SDS011;37657;53.182;5.638;2023-04-03T03:03:49;5.38;;;3.15;;
51566;SDS011;37657;53.182;5.638;2023-04-03T03:06:16;2.85;;;2.35;;
51566;SDS011;37657;53.182;5.638;2023-04-03T03:08:42;4.18;;;2.88;;
51566;SDS011;37657;53.182;5.638;2023-04-03T03:11:08;3.42;;;2.80;;
51566;SDS011;37657;53.182;5.638;2023-04-03T03:13:35;4.97;;;2.65;;
51566;SDS011;37657;53.182;5.638;2023-04-03T03:16:00;4.90;;;2.88;;
51566;SDS011;37657;53.182;5.638;2023-04-03T03:18:27;3.85;;;3.47;;
51566;SDS011;37657;53.182;5.638;2023-04-03T03:20:53;6.22;;;2.95;;
51566;SDS011;37657;53.182;5.638;2023-04-03T03:23:21;6.03;;;3.33;;
51566;SDS011;37657;53.182;5.638;2023-04-03T03:25:47;5.43;;;3.05;;
51566;SDS011;37657;53.182;5.638;2023-04-03T03:28:13;2.83;;;2.45;;
51566;SDS011;37657;53.182;5.638;2023-04-03T03:30:38;9.55;;;3.40;;
51566;SDS011;37657;53.182;5.638;2023-04-03T03:33:04;4.38;;;3.13;;
51566;SDS011;37657;53.182;5.638;2023-04-03T03:35:30;4.18;;;3.28;;
51566;SDS011;37657;53.182;5.638;2023-04-03T03:37:55;3.28;;;2.78;;
51566;SDS011;37657;53.182;5.638;2023-04-03T03:40:21;4.88;;;2.58;;
51566;SDS011;37657;53.182;5.638;2023-04-03T03:42:46;4.72;;;2.85;;
51566;SDS011;37657;53.182;5.638;2023-04-03T03:45:12;5.78;;;2.88;;
51566;SDS011;37657;53.182;5.638;2023-04-03T03:47:37;9.15;;;3.70;;
51566;SDS011;37657;53.182;5.638;2023-04-03T03:50:03;6.45;;;3.95;;
51566;SDS011;37657;53.182;5.638;2023-04-03T03:52:29;3.78;;;2.67;;
51566;SDS011;37657;53.182;5.638;2023-04-03T03:54:55;5.78;;;3.30;;
51566;SDS011;37657;53.182;5.638;2023-04-03T03:57:21;3.53;;;3.08;;
51566;SDS011;37657;53.182;5.638;2023-04-03T03:59:46;3.05;;;2.75;;
51566;SDS011;37657;53.182;5.638;2023-04-03T04:02:13;9.32;;;3.88;;
51566;SDS011;37657;53.182;5.638;2023-04-03T04:04:39;4.10;;;3.05;;
51566;SDS011;37657;53.182;5.638;2023-04-03T04:07:05;5.53;;;2.58;;
51566;SDS011;37657;53.182;5.638;2023-04-03T04:09:30;3.20;;;2.72;;
51566;SDS011;37657;53.182;5.638;2023-04-03T04:11:56;4.93;;;2.85;;
51566;SDS011;37657;53.182;5.638;2023-04-03T04:14:21;6.40;;;3.47;;
51566;SDS011;37657;53.182;5.638;2023-04-03T04:16:47;5.95;;;2.67;;
51566;SDS011;37657;53.182;5.638;2023-04-03T04:19:13;6.78;;;3.22;;
51566;SDS011;37657;53.182;5.638;2023-04-03T04:21:38;5.28;;;3.28;;
51566;SDS011;37657;53.182;5.638;2023-04-03T04:24:04;3.20;;;2.47;;
51566;SDS011;37657;53.182;5.638;2023-04-03T04:26:30;3.53;;;2.28;;
51566;SDS011;37657;53.182;5.638;2023-04-03T04:28:56;3.30;;;3.00;;
51566;SDS011;37657;53.182;5.638;2023-04-03T04:31:22;8.13;;;5.00;;
51566;SDS011;37657;53.182;5.638;2023-04-03T04:33:47;6.00;;;2.80;;
51566;SDS011;37657;53.182;5.638;2023-04-03T04:36:13;3.80;;;3.20;;
51566;SDS011;37657;53.182;5.638;2023-04-03T04:38:39;5.47;;;3.08;;
51566;SDS011;37657;53.182;5.638;2023-04-03T04:41:06;4.88;;;3.17;;
51566;SDS011;37657;53.182;5.638;2023-04-03T04:43:31;5.25;;;2.88;;
51566;SDS011;37657;53.182;5.638;2023-04-03T04:46:15;5.03;;;2.85;;
51566;SDS011;37657;53.182;5.638;2023-04-03T04:48:41;4.78;;;3.10;;
51566;SDS011;37657;53.182;5.638;2023-04-03T04:51:07;18.33;;;3.75;;
51566;SDS011;37657;53.182;5.638;2023-04-03T04:53:32;8.70;;;4.95;;
51566;SDS011;37657;53.182;5.638;2023-04-03T04:55:58;3.42;;;3.13;;
51566;SDS011;37657;53.182;5.638;2023-04-03T04:58:24;4.88;;;3.20;;
51566;SDS011;37657;53.182;5.638;2023-04-03T05:00:57;4.68;;;3.13;;
51566;SDS011;37657;53.182;5.638;2023-04-03T05:03:30;3.65;;;2.80;;
51566;SDS011;37657;53.182;5.638;2023-04-03T05:05:56;4.65;;;3.38;;
51566;SDS011;37657;53.182;5.638;2023-04-03T05:08:22;4.63;;;3.60;;
51566;SDS011;37657;53.182;5.638;2023-04-03T05:10:47;7.28;;;3.25;;
51566;SDS011;37657;53.182;5.638;2023-04-03T05:13:13;4.38;;;3.17;;
51566;SDS011;37657;53.182;5.638;2023-04-03T05:15:39;7.47;;;4.53;;
51566;SDS011;37657;53.182;5.638;2023-04-03T05:18:05;6.63;;;3.47;;
51566;SDS011;37657;53.182;5.638;2023-04-03T05:20:30;7.72;;;3.78;;
51566;SDS011;37657;53.182;5.638;2023-04-03T05:22:57;6.97;;;3.30;;
51566;SDS011;37657;53.182;5.638;2023-04-03T05:25:22;5.03;;;3.35;;
51566;SDS011;37657;53.182;5.638;2023-04-03T05:27:48;7.32;;;5.30;;
51566;SDS011;37657;53.182;5.638;2023-04-03T05:30:14;12.90;;;3.30;;
51566;SDS011;37657;53.182;5.638;2023-04-03T05:32:40;4.70;;;3.40;;
51566;SDS011;37657;53.182;5.638;2023-04-03T05:35:06;5.63;;;4.47;;
51566;SDS011;37657;53.182;5.638;2023-04-03T05:37:32;5.07;;;3.28;;
51566;SDS011;37657;53.182;5.638;2023-04-03T05:39:58;8.73;;;4.05;;
51566;SDS011;37657;53.182;5.638;2023-04-03T05:42:23;7.70;;;4.68;;
51566;SDS011;37657;53.182;5.638;2023-04-03T05:44:49;5.95;;;3.67;;
51566;SDS011;37657;53.182;5.638;2023-04-03T05:47:15;6.45;;;4.25;;
51566;SDS011;37657;53.182;5.638;2023-04-03T05:49:41;5.63;;;3.40;;
51566;SDS011;37657;53.182;5.638;2023-04-03T05:52:13;18.83;;;4.55;;
51566;SDS011;37657;53.182;5.638;2023-04-03T05:54:46;11.85;;;5.72;;
51566;SDS011;37657;53.182;5.638;2023-04-03T05:57:13;5.07;;;3.78;;
51566;SDS011;37657;53.182;5.638;2023-04-03T05:59:39;4.93;;;3.15;;
51566;SDS011;37657;53.182;5.638;2023-04-03T06:02:05;10.48;;;4.43;;
51566;SDS011;37657;53.182;5.638;2023-04-03T06:04:31;6.10;;;4.55;;
51566;SDS011;37657;53.182;5.638;2023-04-03T06:06:57;5.85;;;4.30;;
51566;SDS011;37657;53.182;5.638;2023-04-03T06:09:24;9.20;;;5.13;;
51566;SDS011;37657;53.182;5.638;2023-04-03T06:11:52;8.68;;;4.38;;
51566;SDS011;37657;53.182;5.638;2023-04-03T06:14:18;9.98;;;5.85;;
51566;SDS011;37657;53.182;5.638;2023-04-03T06:16:44;5.88;;;3.70;;
51566;SDS011;37657;53.182;5.638;2023-04-03T06:19:10;5.75;;;3.58;;
51566;SDS011;37657;53.182;5.638;2023-04-03T06:21:36;6.25;;;3.88;;
51566;SDS011;37657;53.182;5.638;2023-04-03T06:24:03;5.93;;;4.57;;
51566;SDS011;37657;53.182;5.638;2023-04-03T06:26:29;4.47;;;3.45;;
51566;SDS011;37657;53.182;5.638;2023-04-03T06:28:55;7.00;;;3.97;;
51566;SDS011;37657;53.182;5.638;2023-04-03T06:31:21;8.13;;;4.18;;
51566;SDS011;37657;53.182;5.638;2023-04-03T06:33:46;5.28;;;3.92;;
51566;SDS011;37657;53.182;5.638;2023-04-03T06:36:12;5.93;;;3.65;;
51566;SDS011;37657;53.182;5.638;2023-04-03T06:38:38;8.05;;;3.90;;
51566;SDS011;37657;53.182;5.638;2023-04-03T06:41:03;3.67;;;3.03;;
51566;SDS011;37657;53.182;5.638;2023-04-03T06:43:29;4.50;;;4.00;;
51566;SDS011;37657;53.182;5.638;2023-04-03T06:45:56;5.82;;;3.63;;
51566;SDS011;37657;53.182;5.638;2023-04-03T06:48:22;4.75;;;3.78;;
51566;SDS011;37657;53.182;5.638;2023-04-03T06:50:48;4.57;;;3.15;;
51566;SDS011;37657;53.182;5.638;2023-04-03T06:53:13;3.47;;;2.88;;
51566;SDS011;37657;53.182;5.638;2023-04-03T06:55:39;6.05;;;3.30;;
51566;SDS011;37657;53.182;5.638;2023-04-03T06:58:06;4.47;;;3.05;;
51566;SDS011;37657;53.182;5.638;2023-04-03T07:00:32;5.00;;;3.60;;
51566;SDS011;37657;53.182;5.638;2023-04-03T07:02:57;3.35;;;3.05;;
51566;SDS011;37657;53.182;5.638;2023-04-03T07:05:26;5.80;;;2.92;;
51566;SDS011;37657;53.182;5.638;2023-04-03T07:07:52;6.93;;;4.53;;
51566;SDS011;37657;53.182;5.638;2023-04-03T07:10:17;4.40;;;3.30;;
51566;SDS011;37657;53.182;5.638;2023-04-03T07:12:43;4.97;;;3.47;;
51566;SDS011;37657;53.182;5.638;2023-04-03T07:15:09;11.27;;;5.40;;
51566;SDS011;37657;53.182;5.638;2023-04-03T07:17:37;3.58;;;2.70;;
51566;SDS011;37657;53.182;5.638;2023-04-03T07:20:02;5.35;;;3.38;;
51566;SDS011;37657;53.182;5.638;2023-04-03T07:22:28;7.07;;;4.60;;
51566;SDS011;37657;53.182;5.638;2023-04-03T07:24:54;6.95;;;3.40;;
51566;SDS011;37657;53.182;5.638;2023-04-03T07:27:20;5.63;;;3.33;;
51566;SDS011;37657;53.182;5.638;2023-04-03T07:29:46;5.55;;;3.67;;
51566;SDS011;37657;53.182;5.638;2023-04-03T07:32:13;5.10;;;3.13;;
51566;SDS011;37657;53.182;5.638;2023-04-03T07:34:39;4.40;;;3.10;;
51566;SDS011;37657;53.182;5.638;2023-04-03T07:37:05;9.30;;;3.85;;
51566;SDS011;37657;53.182;5.638;2023-04-03T07:39:31;3.50;;;2.83;;
51566;SDS011;37657;53.182;5.638;2023-04-03T07:41:57;5.60;;;3.45;;
51566;SDS011;37657;53.182;5.638;2023-04-03T07:44:23;3.35;;;2.28;;
51566;SDS011;37657;53.182;5.638;2023-04-03T07:46:49;5.63;;;3.53;;
51566;SDS011;37657;53.182;5.638;2023-04-03T07:49:16;19.13;;;3.47;;
51566;SDS011;37657;53.182;5.638;2023-04-03T07:51:43;4.43;;;2.72;;
51566;SDS011;37657;53.182;5.638;2023-04-03T07:54:09;6.80;;;3.70;;
51566;SDS011;37657;53.182;5.638;2023-04-03T07:56:35;6.13;;;3.80;;
51566;SDS011;37657;53.182;5.638;2023-04-03T07:59:01;6.57;;;3.25;;
51566;SDS011;37657;53.182;5.638;2023-04-03T08:01:27;5.07;;;4.07;;
51566;SDS011;37657;53.182;5.638;2023-04-03T08:03:52;6.70;;;3.60;;
51566;SDS011;37657;53.182;5.638;2023-04-03T08:06:18;5.68;;;3.83;;
51566;SDS011;37657;53.182;5.638;2023-04-03T08:08:44;6.63;;;3.42;;
51566;SDS011;37657;53.182;5.638;2023-04-03T08:11:10;4.30;;;2.90;;
51566;SDS011;37657;53.182;5.638;2023-04-03T08:13:36;4.43;;;3.33;;
51566;SDS011;37657;53.182;5.638;2023-04-03T08:16:10;3.97;;;3.22;;
51566;SDS011;37657;53.182;5.638;2023-04-03T08:18:45;4.57;;;3.10;;
51566;SDS011;37657;53.182;5.638;2023-04-03T08:21:11;4.50;;;2.83;;
51566;SDS011;37657;53.182;5.638;2023-04-03T08:23:38;5.63;;;3.20;;
51566;SDS011;37657;53.182;5.638;2023-04-03T08:26:10;4.05;;;2.97;;
51566;SDS011;37657;53.182;5.638;2023-04-03T08:28:40;6.38;;;3.20;;
51566;SDS011;37657;53.182;5.638;2023-04-03T08:31:07;5.88;;;3.50;;
51566;SDS011;37657;53.182;5.638;2023-04-03T08:33:35;8.00;;;3.40;;
51566;SDS011;37657;53.182;5.638;2023-04-03T08:36:03;5.40;;;3.95;;
51566;SDS011;37657;53.182;5.638;2023-04-03T08:38:30;5.90;;;3.05;;
51566;SDS011;37657;53.182;5.638;2023-04-03T08:41:00;7.03;;;3.72;;
51566;SDS011;37657;53.182;5.638;2023-04-03T08:44:02;6.15;;;3.67;;
51566;SDS011;37657;53.182;5.638;2023-04-03T08:52:17;4.90;;;2.88;;
51566;SDS011;37657;53.182;5.638;2023-04-03T08:59:54;4.28;;;2.60;;
51566;SDS011;37657;53.182;5.638;2023-04-03T09:02:28;4.78;;;2.45;;
51566;SDS011;37657;53.182;5.638;2023-04-03T09:05:01;4.65;;;2.78;;
51566;SDS011;37657;53.182;5.638;2023-04-03T09:07:42;5.13;;;2.80;;
51566;SDS011;37657;53.182;5.638;2023-04-03T09:12:39;10.73;;;2.72;;
51566;SDS011;37657;53.182;5.638;2023-04-03T09:15:18;7.93;;;2.83;;
51566;SDS011;37657;53.182;5.638;2023-04-03T09:23:50;5.30;;;2.60;;
51566;SDS011;37657;53.182;5.638;2023-04-03T09:26:18;20.52;;;3.78;;
51566;SDS011;37657;53.182;5.638;2023-04-03T09:29:00;6.00;;;2.50;;
51566;SDS011;37657;53.182;5.638;2023-04-03T09:31:31;4.53;;;2.35;;
51566;SDS011;37657;53.182;5.638;2023-04-03T09:34:03;2.45;;;1.85;;
51566;SDS011;37657;53.182;5.638;2023-04-03T09:36:38;2.65;;;2.25;;
51566;SDS011;37657;53.182;5.638;2023-04-03T09:39:05;3.60;;;2.50;;
51566;SDS011;37657;53.182;5.638;2023-04-03T09:41:34;4.18;;;2.30;;
51566;SDS011;37657;53.182;5.638;2023-04-03T09:44:00;3.85;;;2.92;;
51566;SDS011;37657;53.182;5.638;2023-04-03T09:46:33;5.28;;;2.42;;
51566;SDS011;37657;53.182;5.638;2023-04-03T09:49:01;3.80;;;2.05;;
51566;SDS011;37657;53.182;5.638;2023-04-03T09:51:30;1.75;;;1.50;;
51566;SDS011;37657;53.182;5.638;2023-04-03T09:53:56;3.47;;;1.80;;
51566;SDS011;37657;53.182;5.638;2023-04-03T09:58:52;2.38;;;1.92;;
51566;SDS011;37657;53.182;5.638;2023-04-03T10:01:36;2.10;;;1.70;;
51566;SDS011;37657;53.182;5.638;2023-04-03T10:04:10;5.05;;;1.83;;
51566;SDS011;37657;53.182;5.638;2023-04-03T10:06:44;4.90;;;2.38;;
51566;SDS011;37657;53.182;5.638;2023-04-03T10:14:40;4.57;;;1.52;;
51566;SDS011;37657;53.182;5.638;2023-04-03T10:19:58;3.90;;;2.13;;
51566;SDS011;37657;53.182;5.638;2023-04-03T10:25:14;1.20;;;1.08;;
51566;SDS011;37657;53.182;5.638;2023-04-03T10:27:49;6.50;;;2.50;;
51566;SDS011;37657;53.182;5.638;2023-04-03T10:44:52;4.18;;;1.83;;
51566;SDS011;37657;53.182;5.638;2023-04-03T10:47:44;1.55;;;1.30;;
51566;SDS011;37657;53.182;5.638;2023-04-03T10:54:00;3.70;;;2.28;;
51566;SDS011;37657;53.182;5.638;2023-04-03T10:56:40;2.47;;;1.40;;
51566;SDS011;37657;53.182;5.638;2023-04-03T10:59:25;3.08;;;2.47;;
51566;SDS011;37657;53.182;5.638;2023-04-03T11:01:59;3.00;;;1.60;;
51566;SDS011;37657;53.182;5.638;2023-04-03T11:04:28;1.35;;;0.88;;
51566;SDS011;37657;53.182;5.638;2023-04-03T11:07:04;2.47;;;1.23;;
51566;SDS011;37657;53.182;5.638;2023-04-03T11:09:37;1.92;;;1.30;;
51566;SDS011;37657;53.182;5.638;2023-04-03T11:12:15;2.65;;;1.55;;
51566;SDS011;37657;53.182;5.638;2023-04-03T11:15:02;3.80;;;1.52;;
51566;SDS011;37657;53.182;5.638;2023-04-03T11:17:39;2.95;;;1.60;;
51566;SDS011;37657;53.182;5.638;2023-04-03T11:20:18;3.67;;;1.40;;
51566;SDS011;37657;53.182;5.638;2023-04-03T11:22:53;1.65;;;1.50;;
51566;SDS011;37657;53.182;5.638;2023-04-03T11:25:26;4.07;;;2.33;;
51566;SDS011;37657;53.182;5.638;2023-04-03T11:27:56;1.10;;;1.00;;
51566;SDS011;37657;53.182;5.638;2023-04-03T11:30:32;3.80;;;1.80;;
51566;SDS011;37657;53.182;5.638;2023-04-03T11:33:11;2.28;;;1.60;;
51566;SDS011;37657;53.182;5.638;2023-04-03T11:36:13;2.83;;;1.60;;
51566;SDS011;37657;53.182;5.638;2023-04-03T11:38:43;1.98;;;1.40;;
51566;SDS011;37657;53.182;5.638;2023-04-03T11:41:12;7.95;;;1.92;;
51566;SDS011;37657;53.182;5.638;2023-04-03T11:44:28;3.20;;;1.20;;
51566;SDS011;37657;53.182;5.638;2023-04-03T11:49:53;2.35;;;1.40;;
51566;SDS011;37657;53.182;5.638;2023-04-03T12:05:47;3.72;;;2.22;;
51566;SDS011;37657;53.182;5.638;2023-04-03T12:13:36;2.97;;;1.40;;
51566;SDS011;37657;53.182;5.638;2023-04-03T12:16:18;8.63;;;2.35;;
51566;SDS011;37657;53.182;5.638;2023-04-03T12:26:46;3.65;;;1.48;;
51566;SDS011;37657;53.182;5.638;2023-04-03T12:37:16;2.83;;;1.67;;
51566;SDS011;37657;53.182;5.638;2023-04-03T12:42:46;2.60;;;1.48;;
51566;SDS011;37657;53.182;5.638;2023-04-03T12:45:22;11.52;;;5.82;;
51566;SDS011;37657;53.182;5.638;2023-04-03T12:47:49;25.25;;;7.82;;
51566;SDS011;37657;53.182;5.638;2023-04-03T12:50:25;29.63;;;7.85;;
51566;SDS011;37657;53.182;5.638;2023-04-03T12:52:56;16.58;;;6.80;;
51566;SDS011;37657;53.182;5.638;2023-04-03T12:55:26;15.70;;;7.32;;
51566;SDS011;37657;53.182;5.638;2023-04-03T12:57:52;7.70;;;5.28;;
51566;SDS011;37657;53.182;5.638;2023-04-03T13:00:28;17.60;;;4.72;;
51566;SDS011;37657;53.182;5.638;2023-04-03T13:02:58;8.65;;;3.50;;
51566;SDS011;37657;53.182;5.638;2023-04-03T13:05:24;5.82;;;3.30;;
51566;SDS011;37657;53.182;5.638;2023-04-03T13:07:53;7.18;;;3.20;;
51566;SDS011;37657;53.182;5.638;2023-04-03T13:10:28;3.20;;;2.53;;
51566;SDS011;37657;53.182;5.638;2023-04-03T13:12:58;3.75;;;1.88;;
51566;SDS011;37657;53.182;5.638;2023-04-03T13:15:40;2.90;;;2.08;;
51566;SDS011;37657;53.182;5.638;2023-04-03T13:18:24;4.57;;;2.50;;
51566;SDS011;37657;53.182;5.638;2023-04-03T13:20:52;3.78;;;2.13;;
51566;SDS011;37657;53.182;5.638;2023-04-03T13:23:22;7.28;;;3.08;;
51566;SDS011;37657;53.182;5.638;2023-04-03T13:25:48;4.22;;;2.47;;
51566;SDS011;37657;53.182;5.638;2023-04-03T13:28:17;3.88;;;2.17;;
51566;SDS011;37657;53.182;5.638;2023-04-03T13:31:00;3.33;;;2.38;;
51566;SDS011;37657;53.182;5.638;2023-04-03T13:33:30;2.67;;;2.30;;
51566;SDS011;37657;53.182;5.638;2023-04-03T13:36:02;4.03;;;2.28;;
51566;SDS011;37657;53.182;5.638;2023-04-03T13:38:35;1.88;;;1.60;;
51566;SDS011;37657;53.182;5.638;2023-04-03T13:41:05;2.60;;;1.55;;
51566;SDS011;37657;53.182;5.638;2023-04-03T13:43:47;6.40;;;2.30;;
51566;SDS011;37657;53.182;5.638;2023-04-03T13:48:40;2.97;;;2.05;;
51566;SDS011;37657;53.182;5.638;2023-04-03T13:56:17;4.45;;;2.05;;
51566;SDS011;37657;53.182;5.638;2023-04-03T13:58:54;2.60;;;1.60;;
51566;SDS011;37657;53.182;5.638;2023-04-03T14:01:25;4.20;;;2.05;;
51566;SDS011;37657;53.182;5.638;2023-04-03T14:04:15;2.85;;;1.90;;
51566;SDS011;37657;53.182;5.638;2023-04-03T14:06:43;5.18;;;3.05;;
51566;SDS011;37657;53.182;5.638;2023-04-03T14:09:09;3.45;;;2.00;;
51566;SDS011;37657;53.182;5.638;2023-04-03T14:11:35;4.20;;;2.20;;
51566;SDS011;37657;53.182;5.638;2023-04-03T14:14:02;5.05;;;2.08;;
51566;SDS011;37657;53.182;5.638;2023-04-03T14:16:37;3.70;;;2.00;;
51566;SDS011;37657;53.182;5.638;2023-04-03T14:19:04;4.35;;;3.35;;
51566;SDS011;37657;53.182;5.638;2023-04-03T14:21:30;7.50;;;2.80;;
51566;SDS011;37657;53.182;5.638;2023-04-03T14:23:55;5.10;;;1.58;;
51566;SDS011;37657;53.182;5.638;2023-04-03T14:26:22;2.70;;;1.70;;
51566;SDS011;37657;53.182;5.638;2023-04-03T14:28:50;3.05;;;1.75;;
51566;SDS011;37657;53.182;5.638;2023-04-03T14:31:17;2.67;;;1.70;;
51566;SDS011;37657;53.182;5.638;2023-04-03T14:33:43;5.30;;;2.83;;
51566;SDS011;37657;53.182;5.638;2023-04-03T14:36:30;2.75;;;1.65;;
51566;SDS011;37657;53.182;5.638;2023-04-03T14:38:56;2.72;;;2.00;;
51566;SDS011;37657;53.182;5.638;2023-04-03T14:41:23;3.42;;;2.25;;
51566;SDS011;37657;53.182;5.638;2023-04-03T14:43:51;4.10;;;2.08;;
51566;SDS011;37657;53.182;5.638;2023-04-03T14:46:25;2.55;;;1.60;;
51566;SDS011;37657;53.182;5.638;2023-04-03T14:48:54;3.97;;;2.85;;
51566;SDS011;37657;53.182;5.638;2023-04-03T14:51:21;4.28;;;2.70;;
51566;SDS011;37657;53.182;5.638;2023-04-03T14:53:47;4.55;;;2.67;;
51566;SDS011;37657;53.182;5.638;2023-04-03T14:56:15;3.05;;;2.20;;
51566;SDS011;37657;53.182;5.638;2023-04-03T14:58:46;2.75;;;2.08;;
51566;SDS011;37657;53.182;5.638;2023-04-03T15:01:15;3.90;;;1.70;;
51566;SDS011;37657;53.182;5.638;2023-04-03T15:03:41;3.88;;;2.53;;
51566;SDS011;37657;53.182;5.638;2023-04-03T15:06:08;3.70;;;1.98;;
51566;SDS011;37657;53.182;5.638;2023-04-03T15:08:37;4.45;;;1.85;;
51566;SDS011;37657;53.182;5.638;2023-04-03T15:11:03;2.88;;;2.25;;
51566;SDS011;37657;53.182;5.638;2023-04-03T15:13:29;3.88;;;2.08;;
51566;SDS011;37657;53.182;5.638;2023-04-03T15:15:54;5.03;;;2.97;;
51566;SDS011;37657;53.182;5.638;2023-04-03T15:18:21;3.95;;;1.77;;
51566;SDS011;37657;53.182;5.638;2023-04-03T15:20:49;1.98;;;1.30;;
51566;SDS011;37657;53.182;5.638;2023-04-03T15:23:15;2.38;;;1.70;;
51566;SDS011;37657;53.182;5.638;2023-04-03T15:25:45;5.47;;;2.38;;
51566;SDS011;37657;53.182;5.638;2023-04-03T15:28:20;4.35;;;2.53;;
51566;SDS011;37657;53.182;5.638;2023-04-03T15:30:55;3.25;;;2.17;;
51566;SDS011;37657;53.182;5.638;2023-04-03T15:33:21;3.75;;;2.65;;
51566;SDS011;37657;53.182;5.638;2023-04-03T15:35:47;4.40;;;2.50;;
51566;SDS011;37657;53.182;5.638;2023-04-03T15:38:13;5.30;;;2.80;;
51566;SDS011;37657;53.182;5.638;2023-04-03T15:40:38;4.63;;;2.88;;
51566;SDS011;37657;53.182;5.638;2023-04-03T15:43:05;4.20;;;2.55;;
51566;SDS011;37657;53.182;5.638;2023-04-03T15:45:31;7.35;;;2.80;;
51566;SDS011;37657;53.182;5.638;2023-04-03T15:47:58;5.50;;;2.88;;
51566;SDS011;37657;53.182;5.638;2023-04-03T15:50:24;4.18;;;2.53;;
51566;SDS011;37657;53.182;5.638;2023-04-03T15:52:51;3.38;;;2.30;;
51566;SDS011;37657;53.182;5.638;2023-04-03T15:55:23;6.57;;;2.55;;
51566;SDS011;37657;53.182;5.638;2023-04-03T15:57:51;3.92;;;2.22;;
51566;SDS011;37657;53.182;5.638;2023-04-03T16:00:17;2.42;;;1.90;;
51566;SDS011;37657;53.182;5.638;2023-04-03T16:02:44;3.85;;;2.58;;
51566;SDS011;37657;53.182;5.638;2023-04-03T16:05:11;5.05;;;2.45;;
51566;SDS011;37657;53.182;5.638;2023-04-03T16:07:40;7.65;;;3.75;;
51566;SDS011;37657;53.182;5.638;2023-04-03T16:10:06;6.47;;;2.30;;
51566;SDS011;37657;53.182;5.638;2023-04-03T16:12:33;4.88;;;2.55;;
51566;SDS011;37657;53.182;5.638;2023-04-03T16:14:58;3.65;;;2.40;;
51566;SDS011;37657;53.182;5.638;2023-04-03T16:17:25;3.90;;;1.92;;
51566;SDS011;37657;53.182;5.638;2023-04-03T16:19:52;5.90;;;2.33;;
51566;SDS011;37657;53.182;5.638;2023-04-03T16:22:19;2.38;;;1.40;;
51566;SDS011;37657;53.182;5.638;2023-04-03T16:24:45;4.45;;;1.95;;
51566;SDS011;37657;53.182;5.638;2023-04-03T16:27:10;1.77;;;1.42;;
51566;SDS011;37657;53.182;5.638;2023-04-03T16:29:36;3.65;;;1.73;;
51566;SDS011;37657;53.182;5.638;2023-04-03T16:32:01;2.15;;;1.77;;
51566;SDS011;37657;53.182;5.638;2023-04-03T16:34:27;1.75;;;1.38;;
51566;SDS011;37657;53.182;5.638;2023-04-03T16:36:55;2.17;;;1.70;;
51566;SDS011;37657;53.182;5.638;2023-04-03T16:39:21;2.42;;;1.58;;
51566;SDS011;37657;53.182;5.638;2023-04-03T16:41:47;2.15;;;1.52;;
51566;SDS011;37657;53.182;5.638;2023-04-03T16:44:12;1.73;;;1.45;;